createdAt,value
2023-04-19T00:00:39.397Z,9.70
2023-04-19T00:01:38.766Z,9.68
2023-04-19T00:02:40.410Z,9.68
2023-04-19T00:03:39.225Z,9.68
2023-04-19T00:04:39.296Z,9.64
2023-04-19T00:05:39.407Z,9.68
2023-04-19T00:06:39.559Z,9.56
2023-04-19T00:07:39.698Z,9.61
2023-04-19T00:08:41.377Z,9.56
2023-04-19T00:09:39.988Z,9.61
2023-04-19T00:10:40.910Z,9.60
2023-04-19T00:11:40.300Z,9.50
2023-04-19T00:12:40.451Z,9.49
2023-04-19T00:13:40.608Z,9.48
2023-04-19T00:14:40.709Z,9.40
2023-04-19T00:15:40.864Z,9.39
2023-04-19T00:16:42.892Z,9.46
2023-04-19T00:17:41.305Z,9.46
2023-04-19T00:18:41.439Z,9.42
2023-04-19T00:19:42.604Z,9.45
2023-04-19T00:20:42.406Z,9.38
2023-04-19T00:21:42.077Z,9.34
2023-04-19T00:22:43.376Z,9.32
2023-04-19T00:23:42.367Z,9.27
2023-04-19T00:24:44.401Z,9.32
2023-04-19T00:25:43.442Z,9.27
2023-04-19T00:26:42.827Z,9.24
2023-04-19T00:27:43.018Z,9.28
2023-04-19T00:28:43.176Z,9.40
2023-04-19T00:29:43.327Z,9.31
2023-04-19T00:30:44.399Z,9.27
2023-04-19T00:31:43.695Z,9.20
2023-04-19T00:32:44.483Z,9.15
2023-04-19T00:33:44.056Z,9.24
2023-04-19T00:34:46.379Z,9.13
2023-04-19T00:35:44.426Z,9.12
2023-04-19T00:36:46.368Z,9.12
2023-04-19T00:37:44.721Z,9.13
2023-04-19T00:38:44.860Z,9.06
2023-04-19T00:39:45.932Z,9.18
2023-04-19T00:40:45.887Z,9.10
2023-04-19T00:41:45.378Z,9.06
2023-04-19T00:42:45.529Z,9.09
2023-04-19T00:43:45.688Z,9.18
2023-04-19T00:44:46.418Z,9.12
2023-04-19T00:45:47.283Z,9.20
2023-04-19T00:46:46.944Z,9.24
2023-04-19T00:47:47.028Z,9.16
2023-04-19T00:48:47.415Z,9.21
2023-04-19T00:49:46.659Z,9.23
2023-04-19T00:50:46.836Z,9.23
2023-04-19T00:51:48.873Z,9.21
2023-04-19T00:52:47.912Z,9.30
2023-04-19T00:53:48.265Z,9.30
2023-04-19T00:54:47.632Z,9.21
2023-04-19T00:55:47.820Z,9.27
2023-04-19T00:56:47.955Z,9.28
2023-04-19T00:57:48.077Z,9.35
2023-04-19T00:58:48.251Z,9.32
2023-04-19T00:59:48.914Z,9.32
2023-04-19T01:00:48.569Z,9.31
2023-04-19T01:01:48.795Z,9.39
2023-04-19T01:02:49.958Z,9.28
2023-04-19T01:03:49.178Z,9.34
2023-04-19T01:04:49.217Z,9.27
2023-04-19T01:05:49.418Z,9.23
2023-04-19T01:06:50.421Z,9.31
2023-04-19T01:07:49.798Z,9.35
2023-04-19T01:08:50.922Z,9.35
2023-04-19T01:09:50.448Z,9.39
2023-04-19T01:10:50.396Z,9.24
2023-04-19T01:11:50.567Z,9.32
2023-04-19T01:12:50.754Z,9.46
2023-04-19T01:13:50.910Z,9.40
2023-04-19T01:14:51.920Z,9.32
2023-04-19T01:15:51.389Z,9.30
2023-04-19T01:16:53.386Z,9.38
2023-04-19T01:17:52.292Z,9.34
2023-04-19T01:18:53.275Z,9.32
2023-04-19T01:19:52.919Z,9.43
2023-04-19T01:20:52.153Z,9.43
2023-04-19T01:21:52.958Z,9.28
2023-04-19T01:22:54.380Z,9.35
2023-04-19T01:23:53.377Z,9.38
2023-04-19T01:24:52.806Z,9.28
2023-04-19T01:25:53.011Z,9.28
2023-04-19T01:26:53.918Z,9.32
2023-04-19T01:27:53.459Z,9.38
2023-04-19T01:28:53.939Z,9.43
2023-04-19T01:29:54.426Z,9.42
2023-04-19T01:30:53.988Z,9.42
2023-04-19T01:31:54.225Z,9.42
2023-04-19T01:32:54.405Z,9.46
2023-04-19T01:33:55.885Z,9.43
2023-04-19T01:34:57.382Z,9.46
2023-04-19T01:35:55.888Z,9.48
2023-04-19T01:36:56.894Z,9.39
2023-04-19T01:37:55.386Z,9.32
2023-04-19T01:38:55.553Z,9.35
2023-04-19T01:39:56.427Z,9.40
2023-04-19T01:40:55.958Z,9.31
2023-04-19T01:41:56.129Z,9.42
2023-04-19T01:42:56.307Z,9.40
2023-04-19T01:43:56.492Z,9.38
2023-04-19T01:44:56.658Z,9.52
2023-04-19T01:45:57.431Z,9.48
2023-04-19T01:46:57.923Z,9.49
2023-04-19T01:47:57.934Z,9.46
2023-04-19T01:48:57.447Z,9.50
2023-04-19T01:49:57.616Z,9.46
2023-04-19T01:50:58.425Z,9.42
2023-04-19T01:51:57.901Z,9.43
2023-04-19T01:52:58.036Z,9.46
2023-04-19T01:53:59.889Z,9.50
2023-04-19T01:54:58.373Z,9.39
2023-04-19T01:55:59.388Z,9.42
2023-04-19T01:56:59.908Z,9.38
2023-04-19T01:57:59.450Z,9.50
2023-04-19T01:58:59.076Z,9.50
2023-04-19T02:00:00.889Z,9.43
2023-04-19T02:00:59.395Z,9.52
2023-04-19T02:02:00.429Z,9.58
2023-04-19T02:02:59.839Z,9.48
2023-04-19T02:04:00.072Z,9.58
2023-04-19T02:05:00.929Z,9.53
2023-04-19T02:06:00.272Z,9.50
2023-04-19T02:07:00.422Z,9.45
2023-04-19T02:08:01.009Z,9.49
2023-04-19T02:09:01.401Z,9.39
2023-04-19T02:10:00.993Z,9.32
2023-04-19T02:11:02.888Z,9.30
2023-04-19T02:12:01.593Z,9.42
2023-04-19T02:13:01.974Z,9.35
2023-04-19T02:14:02.459Z,9.32
2023-04-19T02:15:01.835Z,9.34
2023-04-19T02:16:02.981Z,9.31
2023-04-19T02:17:02.179Z,9.45
2023-04-19T02:18:02.916Z,9.43
2023-04-19T02:19:02.444Z,9.43
2023-04-19T02:20:03.450Z,9.48
2023-04-19T02:21:03.443Z,9.42
2023-04-19T02:22:03.901Z,9.46
2023-04-19T02:23:04.408Z,9.46
2023-04-19T02:24:03.262Z,9.46
2023-04-19T02:25:04.408Z,9.48
2023-04-19T02:26:03.520Z,9.42
2023-04-19T02:27:05.429Z,9.35
2023-04-19T02:28:03.950Z,9.42
2023-04-19T02:29:06.374Z,9.40
2023-04-19T02:30:05.188Z,9.34
2023-04-19T02:31:04.439Z,9.38
2023-04-19T02:32:06.426Z,9.38
2023-04-19T02:33:04.777Z,9.40
2023-04-19T02:34:05.894Z,9.38
2023-04-19T02:35:06.102Z,9.39
2023-04-19T02:36:05.354Z,9.30
2023-04-19T02:37:05.551Z,9.38
2023-04-19T02:38:05.783Z,9.28
2023-04-19T02:39:07.903Z,9.43
2023-04-19T02:40:06.203Z,9.42
2023-04-19T02:41:06.332Z,9.38
2023-04-19T02:42:06.550Z,9.43
2023-04-19T02:43:06.752Z,9.35
2023-04-19T02:44:07.405Z,9.43
2023-04-19T02:45:07.002Z,9.45
2023-04-19T02:46:07.187Z,9.39
2023-04-19T02:47:07.345Z,9.43
2023-04-19T02:48:07.980Z,9.45
2023-04-19T02:49:08.418Z,9.43
2023-04-19T02:50:07.800Z,9.31
2023-04-19T02:51:07.914Z,9.40
2023-04-19T02:52:08.037Z,9.31
2023-04-19T02:53:08.919Z,9.35
2023-04-19T02:54:08.510Z,9.34
2023-04-19T02:55:08.749Z,9.40
2023-04-19T02:56:09.900Z,9.35
2023-04-19T02:57:09.014Z,9.40
2023-04-19T02:58:09.149Z,9.39
2023-04-19T02:59:09.850Z,9.46
2023-04-19T03:00:10.446Z,9.38
2023-04-19T03:01:10.432Z,9.43
2023-04-19T03:02:10.003Z,9.46
2023-04-19T03:03:10.122Z,9.52
2023-04-19T03:04:10.336Z,9.48
2023-04-19T03:05:11.449Z,9.42
2023-04-19T03:06:11.462Z,9.34
2023-04-19T03:07:10.839Z,9.28
2023-04-19T03:08:11.025Z,9.38
2023-04-19T03:09:12.906Z,9.40
2023-04-19T03:10:11.387Z,9.32
2023-04-19T03:11:11.548Z,9.34
2023-04-19T03:12:11.758Z,9.31
2023-04-19T03:13:12.445Z,9.32
2023-04-19T03:14:12.070Z,9.35
2023-04-19T03:15:12.999Z,9.34
2023-04-19T03:16:12.437Z,9.28
2023-04-19T03:17:14.913Z,9.25
2023-04-19T03:18:12.784Z,9.27
2023-04-19T03:19:13.054Z,9.34
2023-04-19T03:20:14.946Z,9.18
2023-04-19T03:21:13.339Z,9.16
2023-04-19T03:22:13.500Z,9.30
2023-04-19T03:23:13.629Z,9.13
2023-04-19T03:24:14.216Z,9.23
2023-04-19T03:25:13.923Z,9.20
2023-04-19T03:26:14.114Z,9.21
2023-04-19T03:27:14.385Z,9.15
2023-04-19T03:28:14.467Z,9.16
2023-04-19T03:29:16.405Z,9.24
2023-04-19T03:30:14.791Z,9.10
2023-04-19T03:31:16.030Z,9.13
2023-04-19T03:33:15.999Z,9.13
2023-04-19T03:34:16.655Z,9.04
2023-04-19T03:35:15.719Z,9.04
2023-04-19T03:36:15.882Z,9.06
2023-04-19T03:37:16.054Z,9.16
2023-04-19T03:38:16.172Z,8.97
2023-04-19T03:39:16.332Z,9.05
2023-04-19T03:40:16.523Z,8.94
2023-04-19T03:41:16.690Z,8.96
2023-04-19T03:42:16.869Z,8.94
2023-04-19T03:43:17.010Z,8.96
2023-04-19T03:44:18.079Z,9.02
2023-04-19T03:45:18.492Z,8.93
2023-04-19T03:46:17.635Z,9.01
2023-04-19T03:47:17.844Z,9.04
2023-04-19T03:48:18.003Z,9.09
2023-04-19T03:49:18.174Z,9.01
2023-04-19T03:50:18.336Z,8.99
2023-04-19T03:51:19.540Z,9.01
2023-04-19T03:52:18.671Z,8.99
2023-04-19T03:53:19.443Z,8.99
2023-04-19T03:54:18.989Z,8.90
2023-04-19T03:55:20.908Z,8.91
2023-04-19T03:56:19.386Z,8.93
2023-04-19T03:57:19.542Z,8.88
2023-04-19T03:58:20.444Z,8.96
2023-04-19T03:59:19.832Z,8.88
2023-04-19T04:00:19.955Z,8.83
2023-04-19T04:01:20.100Z,8.87
2023-04-19T04:02:21.956Z,8.90
2023-04-19T04:03:21.672Z,8.81
2023-04-19T04:04:21.090Z,8.81
2023-04-19T04:05:21.505Z,8.81
2023-04-19T04:06:22.901Z,8.83
2023-04-19T04:07:21.900Z,8.78
2023-04-19T04:08:21.959Z,8.87
2023-04-19T04:09:21.972Z,8.83
2023-04-19T04:10:22.402Z,8.76
2023-04-19T04:11:21.937Z,8.75
2023-04-19T04:12:22.951Z,8.79
2023-04-19T04:13:22.944Z,8.79
2023-04-19T04:14:22.446Z,8.76
2023-04-19T04:15:22.959Z,8.76
2023-04-19T04:16:24.591Z,8.72
2023-04-19T04:17:23.494Z,8.78
2023-04-19T04:18:23.036Z,8.72
2023-04-19T04:19:23.172Z,8.72
2023-04-19T04:20:23.381Z,8.72
2023-04-19T04:21:23.535Z,8.71
2023-04-19T04:22:23.687Z,8.79
2023-04-19T04:23:24.451Z,8.75
2023-04-19T04:24:24.904Z,8.79
2023-04-19T04:25:24.970Z,8.73
2023-04-19T04:26:24.331Z,8.69
2023-04-19T04:27:24.505Z,8.76
2023-04-19T04:28:25.419Z,8.71
2023-04-19T04:29:24.898Z,8.79
2023-04-19T04:30:27.847Z,8.72
2023-04-19T04:31:26.402Z,8.69
2023-04-19T04:32:25.555Z,8.73
2023-04-19T04:33:26.309Z,8.65
2023-04-19T04:34:25.920Z,8.66
2023-04-19T04:35:26.040Z,8.69
2023-04-19T04:36:26.923Z,8.62
2023-04-19T04:37:26.521Z,8.63
2023-04-19T04:38:27.482Z,8.63
2023-04-19T04:39:26.815Z,8.69
2023-04-19T04:40:29.455Z,8.62
2023-04-19T04:41:27.969Z,8.71
2023-04-19T04:42:27.474Z,8.75
2023-04-19T04:43:27.589Z,8.72
2023-04-19T04:44:27.980Z,8.73
2023-04-19T04:45:28.998Z,8.75
2023-04-19T04:46:28.156Z,8.63
2023-04-19T04:47:29.033Z,8.69
2023-04-19T04:48:28.991Z,8.65
2023-04-19T04:49:28.628Z,8.62
2023-04-19T04:50:28.784Z,8.68
2023-04-19T04:51:28.957Z,8.65
2023-04-19T04:52:29.120Z,8.65
2023-04-19T04:53:30.933Z,8.63
2023-04-19T04:54:29.416Z,8.69
2023-04-19T04:55:30.493Z,8.62
2023-04-19T04:56:31.065Z,8.69
2023-04-19T04:57:30.439Z,8.57
2023-04-19T04:58:30.073Z,8.71
2023-04-19T04:59:30.988Z,8.51
2023-04-19T05:00:30.347Z,8.54
2023-04-19T05:01:31.582Z,8.62
2023-04-19T05:02:30.847Z,8.55
2023-04-19T05:03:31.499Z,8.50
2023-04-19T05:04:31.088Z,8.66
2023-04-19T05:05:31.935Z,8.55
2023-04-19T05:06:31.440Z,8.53
2023-04-19T05:07:31.579Z,8.53
2023-04-19T05:08:31.989Z,8.45
2023-04-19T05:09:31.880Z,8.48
2023-04-19T05:10:32.982Z,8.48
2023-04-19T05:11:32.232Z,8.42
2023-04-19T05:12:32.363Z,8.45
2023-04-19T05:13:33.338Z,8.37
2023-04-19T05:14:32.697Z,8.53
2023-04-19T05:15:32.880Z,8.54
2023-04-19T05:16:34.051Z,8.45
2023-04-19T05:17:34.060Z,8.47
2023-04-19T05:18:33.425Z,8.47
2023-04-19T05:19:34.484Z,8.45
2023-04-19T05:20:33.906Z,8.53
2023-04-19T05:21:34.052Z,8.54
2023-04-19T05:22:34.940Z,8.51
2023-04-19T05:23:34.420Z,8.45
2023-04-19T05:24:35.505Z,8.60
2023-04-19T05:25:34.771Z,8.65
2023-04-19T05:26:34.927Z,8.53
2023-04-19T05:27:35.092Z,8.75
2023-04-19T05:28:35.987Z,8.71
2023-04-19T05:29:36.480Z,8.75
2023-04-19T05:30:35.674Z,8.84
2023-04-19T05:31:35.870Z,8.83
2023-04-19T05:32:37.049Z,8.79
2023-04-19T05:33:36.978Z,8.69
2023-04-19T05:34:36.960Z,8.65
2023-04-19T05:35:36.510Z,8.53
2023-04-19T05:36:37.445Z,8.45
2023-04-19T05:37:36.824Z,8.44
2023-04-19T05:38:36.956Z,8.42
2023-04-19T05:39:37.137Z,8.39
2023-04-19T05:40:37.285Z,8.53
2023-04-19T05:41:37.947Z,8.42
2023-04-19T05:42:38.487Z,8.42
2023-04-19T05:43:38.536Z,8.42
2023-04-19T05:44:39.450Z,8.39
2023-04-19T05:45:38.045Z,8.32
2023-04-19T05:46:39.123Z,8.45
2023-04-19T05:47:38.486Z,8.65
2023-04-19T05:48:38.514Z,8.79
2023-04-19T05:49:41.291Z,8.87
2023-04-19T05:50:38.789Z,9.04
2023-04-19T05:51:38.948Z,8.87
2023-04-19T05:52:39.066Z,8.68
2023-04-19T05:53:40.015Z,8.53
2023-04-19T05:54:39.995Z,8.58
2023-04-19T05:55:40.962Z,8.69
2023-04-19T05:56:39.822Z,8.76
2023-04-19T05:57:40.555Z,8.87
2023-04-19T05:58:40.318Z,9.01
2023-04-19T05:59:40.956Z,9.20
2023-04-19T06:00:40.450Z,9.15
2023-04-19T06:01:40.646Z,9.21
2023-04-19T06:02:40.925Z,9.42
2023-04-19T06:03:41.920Z,9.42
2023-04-19T06:04:42.280Z,9.71
2023-04-19T06:05:41.372Z,9.66
2023-04-19T06:06:41.447Z,9.25
2023-04-19T06:07:47.072Z,8.97
2023-04-19T06:08:43.746Z,8.78
2023-04-19T06:09:41.973Z,8.72
2023-04-19T06:10:53.711Z,8.62
2023-04-19T06:11:50.691Z,8.65
2023-04-19T06:12:45.488Z,8.65
2023-04-19T06:13:42.689Z,8.72
2023-04-19T06:14:42.825Z,8.69
2023-04-19T06:15:43.562Z,8.75
2023-04-19T06:16:43.994Z,8.76
2023-04-19T06:17:44.024Z,8.58
2023-04-19T06:18:43.581Z,8.60
2023-04-19T06:19:43.749Z,8.58
2023-04-19T06:20:44.505Z,8.58
2023-04-19T06:21:44.136Z,8.79
2023-04-19T06:22:46.464Z,8.87
2023-04-19T06:23:44.500Z,8.81
2023-04-19T06:24:45.509Z,8.86
2023-04-19T06:25:44.811Z,8.76
2023-04-19T06:26:45.847Z,8.73
2023-04-19T06:27:45.153Z,8.68
2023-04-19T06:28:45.357Z,8.54
2023-04-19T06:29:45.516Z,8.32
2023-04-19T06:30:46.503Z,8.33
2023-04-19T06:31:47.002Z,8.28
2023-04-19T06:32:46.103Z,8.32
2023-04-19T06:33:46.298Z,8.35
2023-04-19T06:34:47.443Z,8.26
2023-04-19T06:35:47.460Z,8.04
2023-04-19T06:36:46.869Z,8.10
2023-04-19T06:37:47.006Z,8.22
2023-04-19T06:38:47.170Z,8.33
2023-04-19T06:39:47.318Z,8.35
2023-04-19T06:40:47.435Z,8.39
2023-04-19T06:41:47.551Z,8.35
2023-04-19T06:42:47.786Z,8.20
2023-04-19T06:43:48.530Z,8.15
2023-04-19T06:44:48.258Z,8.30
2023-04-19T06:45:49.029Z,8.26
2023-04-19T06:46:48.556Z,8.18
2023-04-19T06:47:48.737Z,8.25
2023-04-19T06:48:48.880Z,8.15
2023-04-19T06:49:48.993Z,8.20
2023-04-19T06:50:50.005Z,8.14
2023-04-19T06:51:50.019Z,8.12
2023-04-19T06:52:49.514Z,8.18
2023-04-19T06:53:49.643Z,8.28
2023-04-19T06:54:49.810Z,8.37
2023-04-19T06:55:50.512Z,8.33
2023-04-19T06:56:50.124Z,8.33
2023-04-19T06:57:50.368Z,8.33
2023-04-19T06:58:50.405Z,8.50
2023-04-19T06:59:50.527Z,8.44
2023-04-19T07:00:50.659Z,8.55
2023-04-19T07:01:50.896Z,8.62
2023-04-19T07:02:51.057Z,8.71
2023-04-19T07:03:51.298Z,8.79
2023-04-19T07:04:51.472Z,8.86
2023-04-19T07:05:52.514Z,8.69
2023-04-19T07:06:52.070Z,8.84
2023-04-19T07:07:52.506Z,9.01
2023-04-19T07:08:52.159Z,9.31
2023-04-19T07:09:52.289Z,9.40
2023-04-19T07:10:52.430Z,9.25
2023-04-19T07:11:54.467Z,9.23
2023-04-19T07:12:53.476Z,9.20
2023-04-19T07:13:52.988Z,9.12
2023-04-19T07:14:54.007Z,9.18
2023-04-19T07:15:53.305Z,9.20
2023-04-19T07:16:53.410Z,9.15
2023-04-19T07:17:54.538Z,9.15
2023-04-19T07:18:54.030Z,9.20
2023-04-19T07:19:53.919Z,9.18
2023-04-19T07:20:55.967Z,9.23
2023-04-19T07:21:55.015Z,9.43
2023-04-19T07:22:54.310Z,9.48
2023-04-19T07:23:54.478Z,9.61
2023-04-19T07:24:55.468Z,9.58
2023-04-19T07:25:55.499Z,9.61
2023-04-19T07:26:56.031Z,9.71
2023-04-19T07:27:56.014Z,9.61
2023-04-19T07:28:56.469Z,9.43
2023-04-19T07:29:56.515Z,9.48
2023-04-19T07:30:55.764Z,9.60
2023-04-19T07:31:56.599Z,9.81
2023-04-19T07:32:57.005Z,10.24
2023-04-19T07:33:57.062Z,10.34
2023-04-19T07:34:56.967Z,10.00
2023-04-19T07:35:57.472Z,9.70
2023-04-19T07:36:57.513Z,9.85
2023-04-19T07:37:57.008Z,9.81
2023-04-19T07:38:57.976Z,9.73
2023-04-19T07:39:57.341Z,10.14
2023-04-19T07:40:57.544Z,10.32
2023-04-19T07:41:58.515Z,10.10
2023-04-19T07:42:58.472Z,9.71
2023-04-19T07:43:58.126Z,9.66
2023-04-19T07:44:58.521Z,9.73
2023-04-19T07:45:59.984Z,9.70
2023-04-19T07:47:00.080Z,9.79
2023-04-19T07:47:58.819Z,10.10
2023-04-19T07:48:59.175Z,10.12
2023-04-19T07:49:59.523Z,10.15
2023-04-19T07:50:59.420Z,10.56
2023-04-19T07:52:00.527Z,10.26
2023-04-19T07:53:01.473Z,10.19
2023-04-19T07:53:59.936Z,9.96
2023-04-19T07:55:00.163Z,10.17
2023-04-19T07:56:00.989Z,10.36
2023-04-19T07:57:00.490Z,10.66
2023-04-19T07:58:01.513Z,10.55
2023-04-19T07:59:08.213Z,10.36
2023-04-19T08:00:03.999Z,10.26
2023-04-19T08:01:01.253Z,10.07
2023-04-19T08:02:02.142Z,10.07
2023-04-19T08:03:01.597Z,10.06
2023-04-19T08:04:02.069Z,10.34
2023-04-19T08:05:02.022Z,10.30
2023-04-19T08:06:01.876Z,9.89
2023-04-19T08:07:02.058Z,9.67
2023-04-19T08:08:02.223Z,9.71
2023-04-19T08:09:04.484Z,9.81
2023-04-19T08:10:03.569Z,9.99
2023-04-19T08:11:02.753Z,10.55
2023-04-19T08:12:04.489Z,10.74
2023-04-19T08:13:06.218Z,10.55
2023-04-19T08:14:12.035Z,10.65
2023-04-19T08:15:19.660Z,10.39
2023-04-19T08:17:24.034Z,10.42
2023-04-19T08:18:06.167Z,10.00
2023-04-19T08:19:05.186Z,9.99
2023-04-19T08:20:04.459Z,10.12
2023-04-19T08:21:05.487Z,10.04
2023-04-19T08:22:04.765Z,10.21
2023-04-19T08:23:18.081Z,10.66
2023-04-19T08:24:08.054Z,10.62
2023-04-19T08:25:05.278Z,10.51
2023-04-19T08:26:06.221Z,10.12
2023-04-19T08:27:06.610Z,9.88
2023-04-19T08:28:06.498Z,10.19
2023-04-19T08:29:05.862Z,11.01
2023-04-19T08:30:06.012Z,11.27
2023-04-19T08:31:06.163Z,11.01
2023-04-19T08:32:07.075Z,10.60
2023-04-19T08:33:06.575Z,10.25
2023-04-19T08:34:08.399Z,10.18
2023-04-19T08:35:06.877Z,10.18
2023-04-19T08:36:07.040Z,10.17
2023-04-19T08:37:07.200Z,9.94
2023-04-19T08:38:08.997Z,9.81
2023-04-19T08:39:29.100Z,9.63
2023-04-19T08:40:09.778Z,9.66
2023-04-19T08:41:09.540Z,9.52
2023-04-19T08:42:13.386Z,9.73
2023-04-19T08:43:10.389Z,9.79
2023-04-19T08:44:08.747Z,9.85
2023-04-19T08:45:27.068Z,10.28
2023-04-19T08:46:11.014Z,10.14
2023-04-19T08:47:11.532Z,10.25
2023-04-19T08:48:11.028Z,10.24
2023-04-19T08:49:10.097Z,10.09
2023-04-19T08:50:20.571Z,10.00
2023-04-19T08:51:12.023Z,9.96
2023-04-19T08:52:10.255Z,10.14
2023-04-19T08:54:11.568Z,10.42
2023-04-19T08:55:11.732Z,10.01
2023-04-19T08:56:18.137Z,10.00
2023-04-19T08:57:13.194Z,10.18
2023-04-19T08:58:15.365Z,10.40
2023-04-19T08:59:19.104Z,10.68
2023-04-19T09:00:13.832Z,10.76
2023-04-19T09:01:19.854Z,10.56
2023-04-19T09:02:14.323Z,10.76
2023-04-19T09:03:41.146Z,10.91
2023-04-19T09:04:31.701Z,11.24
2023-04-19T09:05:15.326Z,10.86
2023-04-19T09:06:13.424Z,10.62
2023-04-19T09:07:15.011Z,10.24
2023-04-19T09:08:14.416Z,10.32
2023-04-19T09:09:28.886Z,10.34
2023-04-19T09:10:15.647Z,10.43
2023-04-19T09:11:14.507Z,10.62
2023-04-19T09:12:14.894Z,10.43
2023-04-19T09:13:15.899Z,10.59
2023-04-19T09:14:14.239Z,10.71
2023-04-19T09:15:14.394Z,10.78
2023-04-19T09:16:15.088Z,10.46
2023-04-19T09:17:16.073Z,10.60
2023-04-19T09:18:17.028Z,10.66
2023-04-19T09:19:23.980Z,11.01
2023-04-19T09:20:16.316Z,11.25
2023-04-19T09:21:15.438Z,10.98
2023-04-19T09:22:15.688Z,10.65
2023-04-19T09:23:15.772Z,10.51
2023-04-19T09:24:15.928Z,10.63
2023-04-19T09:25:37.741Z,10.62
2023-04-19T09:26:23.250Z,10.68
2023-04-19T09:27:20.020Z,10.71
2023-04-19T09:28:16.572Z,10.44
2023-04-19T09:29:17.078Z,10.51
2023-04-19T09:30:24.551Z,10.73
2023-04-19T09:31:39.182Z,10.86
2023-04-19T09:32:19.186Z,10.94
2023-04-19T09:33:17.553Z,11.01
2023-04-19T09:34:17.595Z,10.86
2023-04-19T09:35:18.068Z,10.78
2023-04-19T09:36:17.961Z,11.28
2023-04-19T09:37:35.084Z,11.54
2023-04-19T09:38:21.027Z,11.19
2023-04-19T09:39:18.470Z,10.76
2023-04-19T09:40:19.094Z,10.73
2023-04-19T09:41:18.638Z,10.96
2023-04-19T09:42:28.087Z,11.59
2023-04-19T09:43:45.696Z,11.53
2023-04-19T09:44:52.922Z,10.99
2023-04-19T09:45:30.076Z,11.44
2023-04-19T09:46:23.571Z,11.25
2023-04-19T09:47:21.417Z,11.14
2023-04-19T09:48:20.909Z,10.68
2023-04-19T09:49:33.476Z,10.73
2023-04-19T09:50:25.175Z,10.84
2023-04-19T09:51:22.093Z,10.73
2023-04-19T09:52:21.554Z,10.78
2023-04-19T09:53:20.905Z,11.07
2023-04-19T09:54:21.065Z,11.52
2023-04-19T09:55:27.559Z,11.68
2023-04-19T09:56:24.021Z,11.17
2023-04-19T09:57:22.070Z,11.35
2023-04-19T09:58:22.555Z,11.02
2023-04-19T09:59:22.288Z,11.07
2023-04-19T10:00:23.036Z,10.71
2023-04-19T10:01:23.148Z,10.62
2023-04-19T10:02:22.916Z,10.58
2023-04-19T10:03:24.642Z,10.76
2023-04-19T10:04:32.695Z,10.71
2023-04-19T10:05:27.237Z,10.74
2023-04-19T10:07:30.617Z,11.19
2023-04-19T10:08:25.608Z,11.14
2023-04-19T10:09:24.562Z,10.73
2023-04-19T10:10:33.003Z,10.56
2023-04-19T10:11:26.336Z,10.46
2023-04-19T10:12:51.759Z,10.66
2023-04-19T10:13:27.065Z,10.77
2023-04-19T10:14:26.570Z,11.02
2023-04-19T10:15:26.824Z,11.21
2023-04-19T10:16:25.302Z,11.01
2023-04-19T10:17:25.459Z,10.96
2023-04-19T10:18:26.077Z,11.06
2023-04-19T10:19:27.422Z,10.99
2023-04-19T10:20:26.577Z,10.66
2023-04-19T10:21:26.097Z,10.51
2023-04-19T10:22:27.093Z,10.43
2023-04-19T10:23:26.497Z,10.47
2023-04-19T10:24:27.532Z,10.60
2023-04-19T10:25:27.572Z,10.56
2023-04-19T10:26:27.084Z,10.83
2023-04-19T10:27:27.234Z,11.03
2023-04-19T10:28:28.535Z,10.95
2023-04-19T10:29:27.589Z,11.21
2023-04-19T10:30:29.553Z,11.21
2023-04-19T10:31:28.020Z,11.39
2023-04-19T10:32:29.129Z,11.09
2023-04-19T10:33:29.080Z,11.10
2023-04-19T10:34:28.576Z,11.10
2023-04-19T10:35:30.539Z,11.62
2023-04-19T10:36:28.774Z,11.43
2023-04-19T10:37:29.573Z,11.34
2023-04-19T10:38:30.925Z,11.59
2023-04-19T10:39:29.602Z,12.05
2023-04-19T10:40:29.509Z,11.75
2023-04-19T10:41:29.676Z,11.31
2023-04-19T10:42:30.803Z,11.29
2023-04-19T10:43:30.001Z,11.44
2023-04-19T10:44:30.137Z,11.46
2023-04-19T10:45:31.091Z,11.10
2023-04-19T10:46:30.540Z,10.83
2023-04-19T10:47:31.647Z,10.83
2023-04-19T10:48:31.574Z,10.91
2023-04-19T10:49:32.427Z,11.24
2023-04-19T10:50:32.042Z,11.39
2023-04-19T10:51:31.588Z,11.27
2023-04-19T10:52:31.711Z,11.21
2023-04-19T10:53:31.830Z,11.43
2023-04-19T10:54:32.009Z,11.47
2023-04-19T10:55:32.168Z,11.52
2023-04-19T10:56:32.325Z,11.70
2023-04-19T10:57:32.494Z,12.09
2023-04-19T10:58:33.580Z,12.02
2023-04-19T10:59:32.850Z,11.36
2023-04-19T11:00:33.605Z,11.50
2023-04-19T11:01:34.222Z,11.83
2023-04-19T11:02:33.424Z,11.82
2023-04-19T11:03:33.658Z,11.61
2023-04-19T11:04:35.167Z,11.50
2023-04-19T11:05:33.710Z,11.29
2023-04-19T11:06:33.901Z,11.20
2023-04-19T11:07:35.039Z,11.28
2023-04-19T11:08:34.303Z,11.28
2023-04-19T11:09:35.094Z,11.46
2023-04-19T11:10:35.587Z,11.36
2023-04-19T11:11:34.855Z,11.25
2023-04-19T11:12:35.055Z,11.16
2023-04-19T11:13:35.201Z,11.43
2023-04-19T11:14:35.360Z,11.61
2023-04-19T11:15:36.126Z,11.72
2023-04-19T11:16:45.470Z,11.68
2023-04-19T11:17:38.125Z,12.05
2023-04-19T11:18:36.635Z,12.24
2023-04-19T11:19:36.604Z,12.31
2023-04-19T11:20:36.365Z,12.19
2023-04-19T11:21:36.509Z,12.20
2023-04-19T11:22:37.566Z,12.16
2023-04-19T11:23:36.799Z,11.82
2023-04-19T11:24:36.944Z,11.70
2023-04-19T11:25:37.098Z,11.56
2023-04-19T11:26:37.290Z,11.67
2023-04-19T11:27:37.471Z,11.83
2023-04-19T11:28:37.652Z,12.06
2023-04-19T11:29:37.783Z,11.96
2023-04-19T11:30:38.590Z,11.86
2023-04-19T11:31:39.181Z,11.80
2023-04-19T11:32:39.090Z,11.83
2023-04-19T11:33:38.496Z,11.74
2023-04-19T11:34:38.677Z,11.62
2023-04-19T11:35:40.049Z,11.89
2023-04-19T11:36:39.628Z,12.01
2023-04-19T11:37:39.292Z,12.26
2023-04-19T11:38:39.435Z,12.48
2023-04-19T11:39:39.647Z,12.34
2023-04-19T11:40:40.134Z,12.23
2023-04-19T11:41:40.088Z,12.15
2023-04-19T11:42:40.232Z,12.11
2023-04-19T11:43:40.402Z,12.37
2023-04-19T11:44:41.106Z,12.21
2023-04-19T11:45:40.803Z,12.19
2023-04-19T11:46:41.045Z,12.13
2023-04-19T11:47:41.207Z,12.08
2023-04-19T11:48:42.120Z,12.29
2023-04-19T11:49:41.522Z,12.49
2023-04-19T11:50:41.756Z,12.48
2023-04-19T11:51:42.155Z,12.51
2023-04-19T11:52:43.070Z,12.30
2023-04-19T11:53:42.264Z,12.62
2023-04-19T11:54:44.561Z,12.33
2023-04-19T11:55:42.580Z,12.15
2023-04-19T11:56:42.740Z,12.13
2023-04-19T11:57:43.932Z,12.38
2023-04-19T11:58:43.108Z,12.51
2023-04-19T11:59:45.949Z,12.39
2023-04-19T12:00:44.112Z,12.02
2023-04-19T12:01:43.631Z,11.90
2023-04-19T12:02:44.261Z,11.77
2023-04-19T12:03:44.883Z,12.11
2023-04-19T12:04:44.206Z,12.23
2023-04-19T12:05:44.374Z,12.42
2023-04-19T12:06:44.543Z,12.38
2023-04-19T12:07:44.569Z,12.20
2023-04-19T12:08:45.617Z,12.05
2023-04-19T12:09:45.115Z,12.05
2023-04-19T12:10:45.035Z,11.99
2023-04-19T12:11:45.202Z,11.83
2023-04-19T12:12:45.354Z,11.97
2023-04-19T12:13:46.116Z,12.01
2023-04-19T12:14:45.656Z,12.02
2023-04-19T12:15:45.824Z,12.01
2023-04-19T12:16:46.083Z,11.94
2023-04-19T12:17:56.815Z,12.02
2023-04-19T12:18:48.358Z,12.12
2023-04-19T12:19:47.117Z,12.19
2023-04-19T12:20:46.629Z,12.34
2023-04-19T12:21:49.085Z,12.51
2023-04-19T12:22:47.574Z,12.70
2023-04-19T12:23:48.569Z,12.57
2023-04-19T12:24:48.117Z,12.46
2023-04-19T12:25:47.527Z,12.34
2023-04-19T12:26:48.129Z,12.31
2023-04-19T12:27:48.616Z,12.31
2023-04-19T12:28:48.127Z,12.12
2023-04-19T12:29:49.118Z,12.15
2023-04-19T12:30:48.492Z,12.19
2023-04-19T12:31:49.635Z,12.41
2023-04-19T12:32:48.799Z,12.62
2023-04-19T12:33:48.975Z,12.71
2023-04-19T12:34:50.585Z,12.82
2023-04-19T12:35:49.349Z,12.31
2023-04-19T12:36:51.071Z,12.16
2023-04-19T12:37:50.668Z,12.45
2023-04-19T12:38:49.907Z,12.52
2023-04-19T12:39:50.066Z,12.48
2023-04-19T12:40:50.389Z,12.57
2023-04-19T12:41:51.251Z,12.64
2023-04-19T12:42:51.075Z,12.59
2023-04-19T12:43:51.650Z,12.81
2023-04-19T12:44:51.571Z,12.64
2023-04-19T12:45:51.142Z,12.59
2023-04-19T12:46:52.585Z,12.77
2023-04-19T12:47:52.202Z,12.70
2023-04-19T12:48:51.611Z,12.46
2023-04-19T12:49:51.760Z,12.64
2023-04-19T12:50:51.949Z,12.62
2023-04-19T12:51:52.140Z,12.62
2023-04-19T12:52:54.119Z,12.59
2023-04-19T12:53:54.073Z,12.63
2023-04-19T12:54:53.693Z,12.77
2023-04-19T12:55:52.825Z,12.82
2023-04-19T12:56:53.016Z,12.78
2023-04-19T12:57:53.192Z,12.84
2023-04-19T12:58:54.399Z,12.97
2023-04-19T12:59:53.530Z,12.74
2023-04-19T13:00:53.666Z,12.57
2023-04-19T13:01:54.628Z,12.77
2023-04-19T13:02:55.913Z,12.77
2023-04-19T13:03:57.166Z,12.77
2023-04-19T13:04:54.537Z,12.78
2023-04-19T13:05:54.594Z,12.85
2023-04-19T13:06:54.786Z,12.75
2023-04-19T13:07:54.945Z,12.96
2023-04-19T13:09:00.381Z,12.97
2023-04-19T13:09:56.838Z,13.06
2023-04-19T13:10:57.122Z,12.85
2023-04-19T13:11:56.570Z,12.59
2023-04-19T13:12:57.625Z,12.75
2023-04-19T13:13:57.577Z,12.81
2023-04-19T13:14:57.083Z,12.69